createdAt,value
2022-08-01T00:00:09.458Z,1.75
2022-08-01T00:02:39.285Z,1.33
2022-08-01T00:05:08.597Z,1.37
2022-08-01T00:07:36.552Z,1.60
2022-08-01T00:10:08.095Z,1.50
2022-08-01T00:12:36.871Z,2.10
2022-08-01T00:15:06.611Z,1.90
2022-08-01T00:17:37.826Z,1.90
2022-08-01T00:20:11.096Z,2.03
2022-08-01T00:22:39.571Z,1.70
2022-08-01T00:25:09.803Z,1.52
2022-08-01T00:27:38.084Z,1.70
2022-08-01T00:30:11.335Z,1.70
2022-08-01T00:32:46.779Z,1.70
2022-08-01T00:35:14.647Z,1.52
2022-08-01T00:37:43.367Z,1.58
2022-08-01T00:40:11.445Z,1.60
2022-08-01T00:42:43.799Z,1.80
2022-08-01T00:45:13.215Z,2.03
2022-08-01T00:47:41.433Z,1.50
2022-08-01T00:50:13.203Z,1.60
2022-08-01T00:52:41.358Z,1.85
2022-08-01T00:55:10.977Z,1.77
2022-08-01T00:58:05.160Z,1.27
2022-08-01T01:00:34.745Z,1.30
2022-08-01T01:03:03.087Z,1.80
2022-08-01T01:05:37.443Z,1.80
2022-08-01T01:08:10.086Z,1.40
2022-08-01T01:10:47.850Z,1.77
2022-08-01T01:13:21.977Z,1.67
2022-08-01T01:15:59.416Z,1.30
2022-08-01T01:18:47.190Z,1.67
2022-08-01T01:21:28.747Z,1.60
2022-08-01T01:24:19.942Z,1.80
2022-08-01T01:26:53.893Z,1.80
2022-08-01T01:29:29.537Z,1.40
2022-08-01T01:32:46.529Z,1.60
2022-08-01T01:35:29.344Z,1.60
2022-08-01T01:38:02.709Z,1.80
2022-08-01T01:40:32.566Z,2.08
2022-08-01T01:43:01.035Z,1.67
2022-08-01T01:45:29.688Z,1.67
2022-08-01T01:47:59.365Z,1.90
2022-08-01T01:50:27.540Z,1.80
2022-08-01T01:52:56.616Z,1.65
2022-08-01T01:55:25.350Z,1.73
2022-08-01T01:57:53.931Z,1.55
2022-08-01T02:00:23.408Z,1.60
2022-08-01T02:02:52.766Z,1.75
2022-08-01T02:05:21.900Z,1.35
2022-08-01T02:07:50.731Z,2.12
2022-08-01T02:10:19.122Z,1.65
2022-08-01T02:12:50.952Z,1.80
2022-08-01T02:15:19.715Z,1.90
2022-08-01T02:17:49.944Z,1.67
2022-08-01T02:20:19.469Z,2.40
2022-08-01T02:22:52.327Z,1.70
2022-08-01T02:26:09.487Z,2.08
2022-08-01T02:28:43.014Z,2.53
2022-08-01T02:31:17.401Z,1.87
2022-08-01T02:33:48.997Z,1.87
2022-08-01T02:36:30.276Z,1.83
2022-08-01T02:39:05.371Z,1.90
2022-08-01T02:41:35.185Z,1.70
2022-08-01T02:44:04.901Z,1.65
2022-08-01T02:46:37.818Z,2.03
2022-08-01T02:49:08.153Z,2.03
2022-08-01T02:51:37.718Z,1.95
2022-08-01T02:54:08.868Z,1.58
2022-08-01T02:56:42.106Z,1.92
2022-08-01T02:59:14.482Z,1.85
2022-08-01T03:01:44.581Z,1.62
2022-08-01T03:04:12.949Z,1.83
2022-08-01T03:06:42.388Z,1.60
2022-08-01T03:09:16.674Z,1.87
2022-08-01T03:11:45.485Z,1.95
2022-08-01T03:14:14.292Z,1.85
2022-08-01T03:16:44.086Z,1.77
2022-08-01T03:19:13.328Z,1.95
2022-08-01T03:21:42.104Z,2.05
2022-08-01T03:24:11.546Z,1.95
2022-08-01T03:26:40.113Z,2.60
2022-08-01T03:29:12.006Z,1.90
2022-08-01T03:31:44.021Z,2.40
2022-08-01T03:34:12.440Z,2.05
2022-08-01T03:37:07.084Z,1.98
2022-08-01T03:39:42.163Z,2.25
2022-08-01T03:42:14.277Z,1.70
2022-08-01T03:44:51.011Z,1.95
2022-08-01T03:47:23.350Z,2.28
2022-08-01T03:49:53.496Z,2.28
2022-08-01T03:52:22.072Z,2.10
2022-08-01T03:57:36.989Z,2.20
2022-08-01T04:00:10.561Z,1.98
2022-08-01T04:02:40.132Z,2.33
2022-08-01T04:05:15.199Z,2.10
2022-08-01T04:07:56.707Z,2.53
2022-08-01T04:10:25.911Z,2.08
2022-08-01T04:12:53.455Z,2.42
2022-08-01T04:15:21.803Z,2.58
2022-08-01T04:17:49.708Z,2.47
2022-08-01T04:20:17.687Z,2.10
2022-08-01T04:22:47.776Z,1.83
2022-08-01T04:25:22.097Z,1.90
2022-08-01T04:27:52.655Z,2.62
2022-08-01T04:30:26.773Z,2.50
2022-08-01T04:32:56.685Z,2.58
2022-08-01T04:36:02.638Z,2.60
2022-08-01T04:38:18.625Z,1.92
2022-08-01T04:40:47.390Z,2.22
2022-08-01T04:43:16.117Z,2.10
2022-08-01T04:45:51.085Z,2.35
2022-08-01T04:48:22.916Z,2.10
2022-08-01T04:50:51.079Z,2.05
2022-08-01T04:53:23.193Z,1.83
2022-08-01T04:55:50.766Z,1.77
2022-08-01T04:58:19.070Z,2.33
2022-08-01T05:00:52.354Z,1.98
2022-08-01T05:03:21.182Z,1.55
2022-08-01T05:05:50.277Z,1.73
2022-08-01T05:08:18.738Z,2.12
2022-08-01T05:10:54.025Z,1.85
2022-08-01T05:13:24.571Z,2.08
2022-08-01T05:15:53.836Z,1.52
2022-08-01T05:18:26.207Z,1.60
2022-08-01T05:20:57.054Z,2.20
2022-08-01T05:23:42.187Z,1.48
2022-08-01T05:26:15.038Z,1.87
2022-08-01T05:28:44.174Z,1.75
2022-08-01T05:31:15.843Z,2.20
2022-08-01T05:33:46.421Z,1.42
2022-08-01T05:36:14.282Z,1.83
2022-08-01T05:38:41.986Z,1.73
2022-08-01T05:41:12.161Z,1.52
2022-08-01T05:43:41.281Z,2.00
2022-08-01T05:46:09.410Z,1.90
2022-08-01T05:48:38.254Z,2.20
2022-08-01T05:51:06.342Z,1.92
2022-08-01T05:53:40.784Z,1.58
2022-08-01T05:56:16.242Z,1.85
2022-08-01T05:58:49.122Z,1.70
2022-08-01T06:01:21.262Z,1.75
2022-08-01T06:03:50.093Z,1.17
2022-08-01T06:06:17.982Z,2.28
2022-08-01T06:08:47.183Z,1.42
2022-08-01T06:11:15.986Z,2.03
2022-08-01T06:13:48.697Z,1.70
2022-08-01T06:16:18.530Z,1.73
2022-08-01T06:18:47.382Z,2.05
2022-08-01T06:21:18.360Z,1.80
2022-08-01T06:23:47.206Z,2.00
2022-08-01T06:26:20.432Z,1.87
2022-08-01T06:28:55.716Z,1.48
2022-08-01T06:31:31.713Z,1.77
2022-08-01T06:34:01.581Z,1.70
2022-08-01T06:36:29.987Z,1.70
2022-08-01T06:38:58.574Z,2.03
2022-08-01T06:41:27.277Z,2.15
2022-08-01T06:43:56.743Z,1.92
2022-08-01T06:46:30.424Z,1.83
2022-08-01T06:49:00.691Z,1.83
2022-08-01T06:51:28.850Z,1.87
2022-08-01T06:53:56.826Z,1.98
2022-08-01T06:56:27.212Z,1.95
2022-08-01T06:59:01.837Z,1.80
2022-08-01T07:01:35.002Z,1.60
2022-08-01T07:04:09.219Z,1.73
2022-08-01T07:09:09.697Z,1.50
2022-08-01T07:11:43.078Z,1.50
2022-08-01T07:14:16.190Z,1.73
2022-08-01T07:16:44.431Z,1.90
2022-08-01T07:19:15.065Z,1.58
2022-08-01T07:21:45.425Z,1.50
2022-08-01T07:24:21.139Z,1.50
2022-08-01T07:26:54.004Z,1.30
2022-08-01T07:29:26.219Z,1.58
2022-08-01T07:31:55.189Z,1.67
2022-08-01T07:34:24.546Z,2.08
2022-08-01T07:36:55.218Z,1.58
2022-08-01T07:39:26.040Z,1.87
2022-08-01T07:42:06.324Z,1.67
2022-08-01T07:47:07.969Z,1.70
2022-08-01T07:49:40.291Z,1.70
2022-08-01T07:52:09.202Z,1.60
2022-08-01T07:54:40.565Z,1.30
2022-08-01T07:59:49.314Z,1.20
2022-08-01T08:02:18.864Z,1.30
2022-08-01T08:04:50.662Z,1.50
2022-08-01T08:07:18.787Z,1.40
2022-08-01T08:09:51.209Z,1.40
2022-08-01T08:12:28.744Z,1.33
2022-08-01T08:15:02.319Z,1.25
2022-08-01T08:17:35.536Z,1.33
2022-08-01T08:20:09.373Z,1.45
2022-08-01T08:22:38.814Z,1.42
2022-08-01T08:25:08.170Z,1.90
2022-08-01T08:27:39.114Z,1.80
2022-08-01T08:30:12.662Z,1.87
2022-08-01T08:32:45.580Z,1.37
2022-08-01T08:35:22.988Z,1.90
2022-08-01T08:37:56.088Z,1.75
2022-08-01T08:40:31.229Z,1.90
2022-08-01T08:43:09.081Z,1.42
2022-08-01T08:45:59.703Z,1.75
2022-08-01T08:48:29.235Z,1.73
2022-08-01T08:51:00.086Z,1.87
2022-08-01T08:53:35.064Z,2.20
2022-08-01T08:56:04.942Z,2.47
2022-08-01T08:58:38.861Z,1.80
2022-08-01T09:01:10.076Z,1.85
2022-08-01T09:03:42.742Z,1.77
2022-08-01T09:06:12.199Z,1.90
2022-08-01T09:08:41.245Z,1.87
2022-08-01T09:11:09.709Z,2.03
2022-08-01T09:13:38.513Z,1.90
2022-08-01T09:16:20.771Z,1.90
2022-08-01T09:18:54.363Z,2.08
2022-08-01T09:21:27.758Z,1.60
2022-08-01T09:23:59.901Z,1.62
2022-08-01T09:26:34.281Z,2.00
2022-08-01T09:29:10.344Z,2.03
2022-08-01T09:31:47.328Z,2.10
2022-08-01T09:34:26.698Z,1.67
2022-08-01T09:36:57.821Z,2.20
2022-08-01T09:39:42.028Z,2.30
2022-08-01T09:42:29.584Z,1.75
2022-08-01T09:45:02.853Z,1.83
2022-08-01T09:47:39.269Z,1.92
2022-08-01T09:50:11.376Z,1.90
2022-08-01T09:52:40.261Z,2.15
2022-08-01T09:55:10.878Z,2.12
2022-08-01T09:57:40.146Z,2.28
2022-08-01T10:00:35.652Z,2.22
2022-08-01T10:03:25.750Z,2.62
2022-08-01T10:05:58.501Z,1.95
2022-08-01T10:08:28.507Z,2.92
2022-08-01T10:11:20.241Z,2.30
2022-08-01T10:13:50.154Z,2.73
2022-08-01T10:16:18.970Z,2.15
2022-08-01T10:18:51.162Z,2.10
2022-08-01T10:21:56.575Z,2.20
2022-08-01T10:24:18.834Z,2.60
2022-08-01T10:29:46.212Z,3.10
2022-08-01T10:32:29.024Z,2.35
2022-08-01T10:34:58.396Z,2.70
2022-08-01T10:37:28.779Z,1.83
2022-08-01T10:40:27.314Z,2.30
2022-08-01T10:42:48.161Z,1.92
2022-08-01T10:45:19.323Z,1.80
2022-08-01T10:47:55.619Z,1.90
2022-08-01T10:53:16.891Z,2.20
2022-08-01T10:56:02.960Z,2.00
2022-08-01T10:58:42.798Z,2.00
2022-08-01T11:01:25.565Z,1.83
2022-08-01T11:04:17.645Z,1.95
2022-08-01T11:06:55.164Z,1.80
2022-08-01T11:09:36.161Z,2.05
2022-08-01T11:12:23.361Z,2.40
2022-08-01T11:15:08.201Z,2.17
2022-08-01T11:17:54.614Z,1.87
2022-08-01T11:23:03.129Z,2.20
2022-08-01T11:26:03.353Z,1.45
2022-08-01T11:28:40.635Z,2.10
2022-08-01T11:31:30.255Z,1.80
2022-08-01T11:34:13.128Z,1.17
2022-08-01T11:37:30.381Z,1.77
2022-08-01T11:40:17.116Z,1.85
2022-08-01T11:42:45.591Z,1.52
2022-08-01T11:45:20.845Z,1.77
2022-08-01T11:47:51.883Z,1.70
2022-08-01T11:50:32.352Z,1.75
2022-08-01T11:53:08.836Z,2.00
2022-08-01T11:55:47.645Z,1.60
2022-08-01T12:01:07.228Z,1.73
2022-08-01T12:03:44.432Z,2.10
2022-08-01T12:06:15.130Z,1.80
2022-08-01T12:08:46.329Z,1.45
2022-08-01T12:11:14.438Z,1.27
2022-08-01T12:13:47.956Z,1.80
2022-08-01T12:18:52.459Z,1.50
2022-08-01T12:21:23.126Z,1.83
2022-08-01T12:24:02.276Z,1.85
2022-08-01T12:26:43.537Z,1.45
2022-08-01T12:29:41.747Z,1.73
2022-08-01T12:32:27.754Z,2.03
2022-08-01T12:35:18.411Z,1.70
2022-08-01T12:37:50.198Z,1.70
2022-08-01T12:40:29.259Z,1.40
2022-08-01T12:43:01.574Z,1.40
2022-08-01T12:45:56.963Z,1.30
2022-08-01T12:51:04.254Z,1.50
2022-08-01T12:53:40.381Z,1.62
2022-08-01T12:56:12.120Z,1.98
2022-08-01T12:58:40.667Z,1.92
2022-08-01T13:01:14.504Z,1.62
2022-08-01T13:04:06.198Z,1.63
2022-08-01T13:06:41.169Z,1.90
2022-08-01T13:09:16.185Z,1.80
2022-08-01T13:11:59.022Z,1.55
2022-08-01T13:14:41.876Z,1.67
2022-08-01T13:17:15.642Z,1.73
2022-08-01T13:19:46.326Z,1.37
2022-08-01T13:22:15.406Z,2.20
2022-08-01T13:24:45.377Z,2.08
2022-08-01T13:27:24.886Z,1.80
2022-08-01T13:29:56.178Z,1.37
2022-08-01T13:32:29.972Z,1.40
2022-08-01T13:35:08.765Z,1.45
2022-08-01T13:37:39.623Z,1.33
2022-08-01T13:40:13.256Z,1.58
2022-08-01T13:42:44.322Z,1.65
2022-08-01T13:45:15.218Z,1.20
2022-08-01T13:48:11.847Z,1.87
2022-08-01T13:50:34.541Z,1.30
2022-08-01T13:53:03.071Z,1.45
2022-08-01T13:59:52.493Z,1.73
2022-08-01T14:02:22.263Z,1.90
2022-08-01T14:05:03.191Z,1.58
2022-08-01T14:07:38.387Z,1.60
2022-08-01T14:10:19.778Z,1.50
2022-08-01T14:12:50.353Z,1.60
2022-08-01T14:18:10.991Z,1.75
2022-08-01T14:20:45.102Z,1.48
2022-08-01T14:23:13.664Z,1.65
2022-08-01T14:26:04.151Z,1.77
2022-08-01T14:28:35.702Z,1.60
2022-08-01T14:31:09.342Z,1.40
2022-08-01T14:33:39.678Z,1.48
2022-08-01T14:36:30.579Z,1.58
2022-08-01T14:39:01.483Z,1.25
2022-08-01T14:41:33.908Z,2.17
2022-08-01T14:44:05.049Z,1.55
2022-08-01T14:46:36.703Z,1.48
2022-08-01T14:49:11.991Z,1.60
2022-08-01T14:51:43.328Z,1.65
2022-08-01T14:54:14.555Z,1.90
2022-08-01T14:59:21.661Z,1.75
2022-08-01T15:01:53.281Z,1.65
2022-08-01T15:04:29.130Z,1.85
2022-08-01T15:07:04.235Z,1.70
2022-08-01T15:09:34.454Z,1.90
2022-08-01T15:12:04.828Z,1.40
2022-08-01T15:14:54.327Z,1.52
2022-08-01T15:17:26.164Z,1.73
2022-08-01T15:19:55.401Z,1.50
2022-08-01T15:22:27.188Z,1.33
2022-08-01T15:24:58.345Z,1.12
2022-08-01T15:27:33.672Z,1.12
2022-08-01T15:30:05.412Z,1.17
2022-08-01T15:32:35.900Z,1.30
2022-08-01T15:37:43.400Z,1.33
2022-08-01T15:42:47.302Z,1.50
2022-08-01T15:45:44.566Z,1.10
2022-08-01T15:48:07.018Z,1.40
2022-08-01T15:50:38.709Z,1.10
2022-08-01T15:53:09.504Z,1.30
2022-08-01T15:55:41.334Z,1.52
2022-08-01T15:58:11.818Z,1.48
2022-08-01T16:00:42.334Z,1.67
2022-08-01T16:03:10.914Z,1.23
2022-08-01T16:05:44.581Z,1.40
2022-08-01T16:10:57.277Z,1.50
2022-08-01T16:13:28.133Z,1.37
2022-08-01T16:16:06.207Z,1.30
2022-08-01T16:18:35.085Z,1.27
2022-08-01T16:21:09.260Z,1.62
2022-08-01T16:23:41.398Z,1.40
2022-08-01T16:26:11.783Z,1.62
2022-08-01T16:29:00.301Z,1.45
2022-08-01T16:34:13.866Z,1.55
2022-08-01T16:36:50.385Z,1.48
2022-08-01T16:39:23.047Z,1.20
2022-08-01T16:41:55.124Z,1.27
2022-08-01T16:44:34.254Z,1.02
2022-08-01T16:47:08.566Z,1.33
2022-08-01T16:49:40.786Z,1.27
2022-08-01T16:52:18.863Z,1.58
2022-08-01T16:54:54.310Z,1.40
2022-08-01T16:57:26.458Z,1.45
2022-08-01T16:59:57.505Z,1.45
2022-08-01T17:02:33.480Z,1.30
2022-08-01T17:05:08.522Z,1.17
2022-08-01T17:07:45.328Z,1.30
2022-08-01T17:10:15.422Z,1.40
2022-08-01T17:12:49.214Z,1.30
2022-08-01T17:15:23.426Z,1.50
2022-08-01T17:17:54.500Z,1.45
2022-08-01T17:20:31.571Z,1.83
2022-08-01T17:23:02.605Z,1.40
2022-08-01T17:25:39.433Z,1.60
2022-08-01T17:28:10.606Z,1.73
2022-08-01T17:30:41.308Z,1.75
2022-08-01T17:33:17.514Z,1.65
2022-08-01T17:35:52.372Z,1.77
2022-08-01T17:38:27.746Z,1.60
2022-08-01T17:41:02.611Z,2.80
2022-08-01T17:43:32.418Z,1.77
2022-08-01T17:46:01.268Z,2.25
2022-08-01T17:48:32.503Z,2.05
2022-08-01T17:51:08.473Z,2.03
2022-08-01T17:53:37.890Z,2.47
2022-08-01T17:56:27.128Z,2.47
2022-08-01T17:59:02.645Z,2.10
2022-08-01T18:01:31.439Z,3.12
2022-08-01T18:04:06.323Z,1.70
2022-08-01T18:06:38.239Z,3.37
2022-08-01T18:12:18.353Z,1.87
2022-08-01T18:14:49.346Z,2.28
2022-08-01T18:17:30.523Z,2.12
2022-08-01T18:20:00.250Z,2.12
2022-08-01T18:22:33.219Z,1.73
2022-08-01T18:25:08.555Z,1.95
2022-08-01T18:28:29.187Z,1.95
2022-08-01T18:30:32.453Z,2.00
2022-08-01T18:33:01.430Z,2.10
2022-08-01T18:35:52.312Z,2.35
2022-08-01T18:38:29.340Z,2.05
2022-08-01T18:41:06.011Z,2.22
2022-08-01T18:43:37.196Z,2.15
2022-08-01T18:46:07.204Z,2.12
2022-08-01T18:48:44.250Z,1.77
2022-08-01T18:51:17.512Z,2.03
2022-08-01T18:53:54.238Z,2.33
2022-08-01T19:01:42.352Z,2.20
2022-08-01T19:04:11.456Z,2.17
2022-08-01T19:06:43.400Z,2.45
2022-08-01T19:09:20.762Z,2.35
2022-08-01T19:12:05.165Z,2.70
2022-08-01T19:14:42.441Z,2.20
2022-08-01T19:17:17.291Z,2.40
2022-08-01T19:19:55.934Z,2.47
2022-08-01T19:25:10.358Z,2.42
2022-08-01T19:27:51.766Z,2.45
2022-08-01T19:30:21.494Z,2.50
2022-08-01T19:32:56.307Z,3.30
2022-08-01T19:35:26.282Z,2.45
2022-08-01T19:38:07.534Z,2.60
2022-08-01T19:40:39.430Z,2.67
2022-08-01T19:43:21.661Z,2.47
2022-08-01T19:45:56.781Z,2.30
2022-08-01T19:48:35.902Z,2.90
2022-08-01T19:53:55.384Z,2.60
2022-08-01T19:56:33.497Z,3.03
2022-08-01T19:59:22.656Z,2.78
2022-08-01T20:02:06.294Z,3.22
2022-08-01T20:04:35.855Z,3.00
2022-08-01T20:07:12.485Z,2.67
2022-08-01T20:09:50.309Z,2.97
2022-08-01T20:12:30.540Z,2.95
2022-08-01T20:15:08.304Z,2.83
2022-08-01T20:17:45.594Z,2.80
2022-08-01T20:20:23.659Z,2.78
2022-08-01T20:22:57.118Z,3.00
2022-08-01T20:25:40.246Z,2.80
2022-08-01T20:28:15.276Z,3.17
2022-08-01T20:33:37.226Z,2.83
2022-08-01T20:36:12.330Z,2.70
2022-08-01T20:38:55.340Z,3.45
2022-08-01T20:41:27.134Z,3.00
2022-08-01T20:43:59.498Z,2.55
2022-08-01T20:46:36.442Z,3.05
2022-08-01T20:51:42.514Z,3.05
2022-08-01T20:54:18.271Z,3.22
2022-08-01T20:57:04.925Z,3.33
2022-08-01T20:59:56.829Z,3.50
2022-08-01T21:02:38.073Z,3.17
2022-08-01T21:05:13.245Z,3.12
2022-08-01T21:10:26.144Z,3.17
2022-08-01T21:13:19.062Z,2.85
2022-08-01T21:16:12.596Z,2.47
2022-08-01T21:19:19.667Z,2.50
2022-08-01T21:22:17.678Z,2.35
2022-08-01T21:25:03.928Z,2.60
2022-08-01T21:27:34.378Z,2.40
2022-08-01T21:30:10.224Z,2.35
2022-08-01T21:32:43.265Z,2.37
2022-08-01T21:35:16.241Z,2.50
2022-08-01T21:37:52.569Z,2.58
2022-08-01T21:40:23.730Z,2.50
2022-08-01T21:42:53.365Z,2.33
2022-08-01T21:45:24.531Z,2.50
2022-08-01T21:47:55.306Z,2.40
2022-08-01T21:50:24.802Z,2.15
2022-08-01T21:53:04.976Z,2.70
2022-08-01T21:55:51.738Z,2.55
2022-08-01T21:58:31.932Z,1.95
2022-08-01T22:01:52.430Z,3.42
2022-08-01T22:04:37.415Z,2.17
2022-08-01T22:07:09.860Z,2.62
2022-08-01T22:09:39.984Z,2.58
2022-08-01T22:12:08.759Z,2.45
2022-08-01T22:14:40.624Z,2.80
2022-08-01T22:17:13.525Z,3.17
2022-08-01T22:19:45.484Z,2.80
2022-08-01T22:22:45.031Z,2.95
2022-08-01T22:25:04.924Z,2.60
2022-08-01T22:28:06.019Z,3.12
2022-08-01T22:30:22.550Z,2.65
2022-08-01T22:33:15.525Z,2.92
2022-08-01T22:35:43.616Z,3.37
2022-08-01T22:38:13.294Z,2.62
2022-08-01T22:40:50.299Z,2.72
2022-08-01T22:43:31.143Z,3.42
2022-08-01T22:46:05.718Z,2.65
2022-08-01T22:48:44.966Z,2.80
2022-08-01T22:51:27.156Z,2.10
2022-08-01T22:54:05.390Z,2.47
2022-08-01T22:56:39.309Z,2.95
2022-08-01T22:59:14.367Z,2.80
2022-08-01T23:53:49.009Z,2.50
2022-08-01T23:56:21.911Z,2.47
2022-08-01T23:58:52.954Z,2.70
